createdAt,value
2024-03-31T00:02:09.156Z,14.56
2024-03-31T00:04:37.270Z,14.58
2024-03-31T00:07:06.218Z,14.60
2024-03-31T00:09:34.400Z,14.62
2024-03-31T00:12:02.344Z,14.64
2024-03-31T00:14:30.122Z,14.61
2024-03-31T00:16:58.226Z,14.57
2024-03-31T00:19:26.290Z,14.52
2024-03-31T00:21:54.223Z,14.46
2024-03-31T00:24:22.342Z,14.38
2024-03-31T00:26:50.306Z,14.31
2024-03-31T00:29:18.313Z,14.25
2024-03-31T00:31:46.798Z,14.19
2024-03-31T00:34:15.178Z,14.15
2024-03-31T00:36:46.002Z,14.09
2024-03-31T00:39:13.947Z,14.08
2024-03-31T00:41:42.728Z,14.09
2024-03-31T00:44:10.842Z,14.09
2024-03-31T00:46:38.763Z,14.08
2024-03-31T00:49:06.779Z,14.05
2024-03-31T00:51:34.881Z,14.01
2024-03-31T00:54:02.983Z,14.01
2024-03-31T00:56:30.909Z,14.01
2024-03-31T00:58:58.815Z,13.97
2024-03-31T01:01:26.780Z,13.97
2024-03-31T01:03:55.013Z,13.97
2024-03-31T01:06:25.834Z,13.97
2024-03-31T01:08:55.316Z,13.97
2024-03-31T01:11:23.515Z,14.00
2024-03-31T01:13:52.629Z,14.02
2024-03-31T01:16:20.560Z,14.04
2024-03-31T01:18:48.586Z,14.00
2024-03-31T01:21:16.675Z,14.00
2024-03-31T01:23:55.190Z,14.01
2024-03-31T01:26:23.240Z,13.99
2024-03-31T01:28:51.341Z,13.95
2024-03-31T01:31:19.667Z,13.92
2024-03-31T01:33:48.091Z,13.84
2024-03-31T01:36:15.964Z,13.80
2024-03-31T01:38:54.958Z,13.78
2024-03-31T01:41:27.660Z,13.71
2024-03-31T01:43:55.545Z,13.68
2024-03-31T01:46:23.642Z,13.66
2024-03-31T01:48:51.832Z,13.64
2024-03-31T01:51:19.940Z,13.56
2024-03-31T01:53:47.768Z,13.49
2024-03-31T01:56:15.759Z,13.49
2024-03-31T01:58:44.620Z,13.47
2024-03-31T02:01:12.704Z,13.41
2024-03-31T02:03:41.148Z,13.33
2024-03-31T02:06:10.208Z,13.25
2024-03-31T02:08:38.060Z,13.22
2024-03-31T02:11:06.237Z,13.19
2024-03-31T02:13:34.523Z,13.16
2024-03-31T02:16:02.449Z,13.09
2024-03-31T02:18:30.563Z,13.09
2024-03-31T02:20:58.554Z,13.05
2024-03-31T02:23:26.759Z,13.01
2024-03-31T02:25:54.542Z,12.96
2024-03-31T02:28:23.198Z,12.92
2024-03-31T02:30:52.677Z,12.89
2024-03-31T02:33:22.948Z,12.88
2024-03-31T02:35:52.737Z,12.89
2024-03-31T02:38:22.093Z,12.90
2024-03-31T02:40:49.977Z,12.87
2024-03-31T02:43:17.947Z,12.81
2024-03-31T02:45:49.159Z,12.78
2024-03-31T02:48:17.254Z,12.74
2024-03-31T02:50:49.089Z,12.68
2024-03-31T02:53:17.286Z,12.63
2024-03-31T02:55:45.419Z,12.55
2024-03-31T02:58:13.522Z,12.51
2024-03-31T03:00:41.408Z,12.48
2024-03-31T03:03:10.369Z,12.46
2024-03-31T03:05:38.506Z,12.44
2024-03-31T03:08:09.771Z,12.42
2024-03-31T03:10:37.655Z,12.41
2024-03-31T03:13:05.749Z,12.39
2024-03-31T03:15:37.680Z,12.39
2024-03-31T03:18:06.044Z,12.40
2024-03-31T03:20:38.502Z,12.40
2024-03-31T03:23:06.553Z,12.40
2024-03-31T03:25:34.715Z,12.38
2024-03-31T03:28:03.281Z,12.36
2024-03-31T03:30:31.706Z,12.32
2024-03-31T03:32:59.757Z,12.25
2024-03-31T03:35:27.842Z,12.19
2024-03-31T03:37:56.851Z,12.13
2024-03-31T03:40:25.139Z,12.07
2024-03-31T03:42:53.147Z,12.05
2024-03-31T03:45:21.088Z,12.12
2024-03-31T03:47:49.081Z,12.10
2024-03-31T03:50:17.087Z,12.09
2024-03-31T03:52:45.209Z,12.09
2024-03-31T03:55:13.277Z,12.06
2024-03-31T03:57:41.714Z,12.06
2024-03-31T04:00:10.563Z,12.05
2024-03-31T04:02:49.171Z,12.05
2024-03-31T04:05:17.346Z,12.01
2024-03-31T04:07:48.123Z,12.03
2024-03-31T04:10:16.809Z,12.05
2024-03-31T04:12:45.313Z,12.08
2024-03-31T04:15:13.450Z,12.06
2024-03-31T04:17:41.319Z,12.02
2024-03-31T04:20:09.485Z,11.99
2024-03-31T04:22:37.737Z,11.95
2024-03-31T04:25:06.091Z,11.95
2024-03-31T04:27:34.073Z,11.95
2024-03-31T04:30:02.743Z,12.00
2024-03-31T04:32:31.769Z,12.07
2024-03-31T04:34:59.893Z,12.13
2024-03-31T04:37:28.137Z,12.18
2024-03-31T04:39:56.184Z,12.22
2024-03-31T04:42:24.152Z,12.23
2024-03-31T04:44:52.924Z,12.25
2024-03-31T04:47:22.678Z,12.29
2024-03-31T04:49:50.712Z,12.32
2024-03-31T04:52:18.614Z,12.40
2024-03-31T04:54:46.825Z,12.47
2024-03-31T04:57:14.940Z,12.55
2024-03-31T04:59:43.248Z,12.63
2024-03-31T05:02:11.316Z,12.69
2024-03-31T05:04:40.172Z,12.75
2024-03-31T05:07:08.424Z,12.78
2024-03-31T05:09:36.348Z,12.84
2024-03-31T05:12:04.642Z,12.93
2024-03-31T05:14:32.941Z,13.01
2024-03-31T05:17:01.319Z,13.15
2024-03-31T05:19:29.277Z,13.29
2024-03-31T05:21:57.683Z,13.46
2024-03-31T05:24:25.703Z,13.59
2024-03-31T05:26:54.081Z,13.67
2024-03-31T05:29:22.079Z,13.74
2024-03-31T05:31:50.637Z,13.81
2024-03-31T05:34:26.190Z,13.90
2024-03-31T05:36:54.830Z,13.96
2024-03-31T05:39:23.543Z,14.06
2024-03-31T05:41:51.573Z,14.16
2024-03-31T05:44:20.923Z,14.25
2024-03-31T05:46:49.026Z,14.35
2024-03-31T05:49:17.350Z,14.48
2024-03-31T05:51:45.619Z,14.61
2024-03-31T05:54:13.815Z,14.74
2024-03-31T05:56:41.892Z,14.88
2024-03-31T05:59:09.892Z,14.97
2024-03-31T06:01:39.143Z,15.07
2024-03-31T06:04:10.078Z,15.16
2024-03-31T06:06:38.270Z,15.24
2024-03-31T06:09:06.400Z,15.34
2024-03-31T06:11:34.599Z,15.46
2024-03-31T06:14:02.453Z,15.58
2024-03-31T06:16:30.568Z,15.66
2024-03-31T06:18:58.755Z,15.74
2024-03-31T06:21:26.853Z,15.82
2024-03-31T06:23:54.916Z,15.93
2024-03-31T06:26:23.030Z,16.00
2024-03-31T06:28:51.113Z,16.07
2024-03-31T06:31:19.271Z,16.23
2024-03-31T06:33:49.660Z,16.71
2024-03-31T06:36:17.817Z,17.20
2024-03-31T06:38:46.119Z,17.49
2024-03-31T06:41:14.130Z,17.57
2024-03-31T06:43:42.101Z,17.55
2024-03-31T06:46:10.120Z,17.53
2024-03-31T06:48:39.851Z,17.54
2024-03-31T06:51:07.894Z,17.59
2024-03-31T06:53:36.169Z,17.64
2024-03-31T06:56:04.700Z,17.70
2024-03-31T06:58:32.918Z,17.79
2024-03-31T07:01:01.474Z,17.90
2024-03-31T07:03:31.661Z,18.01
2024-03-31T07:05:59.783Z,18.09
2024-03-31T07:08:28.095Z,18.23
2024-03-31T07:10:56.203Z,18.35
2024-03-31T07:13:24.496Z,18.42
2024-03-31T07:15:52.554Z,18.52
2024-03-31T07:18:20.564Z,18.57
2024-03-31T07:20:48.573Z,18.63
2024-03-31T07:23:16.597Z,18.69
2024-03-31T07:25:44.881Z,18.84
2024-03-31T07:28:26.131Z,18.95
2024-03-31T07:30:54.974Z,19.09
2024-03-31T07:33:23.094Z,19.20
2024-03-31T07:35:54.097Z,19.33
2024-03-31T07:38:22.105Z,19.46
2024-03-31T07:40:50.021Z,19.54
2024-03-31T07:43:30.116Z,19.62
2024-03-31T07:45:59.523Z,19.66
2024-03-31T07:48:27.365Z,19.75
2024-03-31T07:50:55.715Z,19.92
2024-03-31T07:53:23.623Z,20.05
2024-03-31T07:56:06.896Z,20.13
2024-03-31T07:58:34.712Z,20.24
2024-03-31T08:01:02.638Z,20.32
2024-03-31T08:03:30.865Z,20.41
2024-03-31T08:05:59.743Z,20.47
2024-03-31T08:08:27.625Z,20.57
2024-03-31T08:10:55.629Z,20.67
2024-03-31T08:13:24.055Z,20.70
2024-03-31T08:15:52.254Z,20.74
2024-03-31T08:18:21.188Z,20.89
2024-03-31T08:20:49.629Z,21.02
2024-03-31T08:23:31.008Z,21.12
2024-03-31T08:25:59.120Z,21.17
2024-03-31T08:28:26.957Z,21.27
2024-03-31T08:30:54.910Z,21.42
2024-03-31T08:33:22.741Z,21.59
2024-03-31T08:35:52.182Z,21.73
2024-03-31T08:38:20.802Z,21.84
2024-03-31T08:40:56.425Z,21.92
2024-03-31T08:43:28.289Z,22.02
2024-03-31T08:45:57.840Z,22.07
2024-03-31T08:48:28.614Z,22.21
2024-03-31T08:50:57.549Z,22.28
2024-03-31T08:53:27.532Z,22.35
2024-03-31T08:55:55.622Z,22.30
2024-03-31T08:58:26.156Z,22.27
2024-03-31T09:00:57.812Z,22.38
2024-03-31T09:03:26.017Z,22.49
2024-03-31T09:05:53.997Z,22.60
2024-03-31T09:08:35.415Z,22.70
2024-03-31T09:11:09.484Z,22.89
2024-03-31T09:13:37.456Z,22.99
2024-03-31T09:16:06.579Z,23.02
2024-03-31T09:18:34.663Z,23.04
2024-03-31T09:21:02.883Z,23.07
2024-03-31T09:23:30.893Z,23.16
2024-03-31T09:26:01.158Z,23.21
2024-03-31T09:28:30.604Z,23.14
2024-03-31T09:30:58.777Z,23.10
2024-03-31T09:33:26.508Z,23.16
2024-03-31T09:35:54.751Z,23.26
2024-03-31T09:38:22.818Z,23.28
2024-03-31T09:40:50.989Z,23.38
2024-03-31T09:43:20.287Z,23.53
2024-03-31T09:45:48.339Z,23.63
2024-03-31T09:48:22.958Z,23.74
2024-03-31T09:51:04.688Z,23.81
2024-03-31T09:53:36.914Z,23.93
2024-03-31T09:56:08.331Z,24.07
2024-03-31T09:58:38.201Z,24.26
2024-03-31T10:01:10.588Z,24.38
2024-03-31T10:03:43.718Z,24.39
2024-03-31T10:06:13.630Z,24.53
2024-03-31T10:08:42.919Z,24.66
2024-03-31T10:11:11.790Z,24.88
2024-03-31T10:13:41.654Z,25.04
2024-03-31T10:16:10.140Z,25.17
2024-03-31T10:18:38.661Z,25.30
2024-03-31T10:21:07.890Z,25.30
2024-03-31T10:23:36.326Z,25.33
2024-03-31T10:26:07.222Z,25.55
2024-03-31T10:28:36.165Z,25.73
2024-03-31T10:31:04.603Z,25.87
2024-03-31T10:33:40.807Z,25.99
2024-03-31T10:36:13.139Z,26.15
2024-03-31T10:38:45.189Z,26.31
2024-03-31T10:41:14.111Z,26.36
2024-03-31T10:43:42.987Z,26.45
2024-03-31T10:46:11.124Z,26.55
2024-03-31T10:48:39.160Z,26.60
2024-03-31T10:51:14.463Z,26.69
2024-03-31T10:53:42.696Z,26.75
2024-03-31T10:56:10.655Z,26.92
2024-03-31T10:58:40.859Z,27.08
2024-03-31T11:01:17.514Z,27.14
2024-03-31T11:03:47.542Z,27.21
2024-03-31T11:06:18.287Z,27.30
2024-03-31T11:08:48.804Z,27.36
2024-03-31T11:11:20.454Z,27.40
2024-03-31T11:13:48.491Z,27.35
2024-03-31T11:16:20.638Z,27.43
2024-03-31T11:18:53.125Z,27.47
2024-03-31T11:21:21.538Z,27.59
2024-03-31T11:23:52.288Z,27.72
2024-03-31T11:26:20.770Z,27.88
2024-03-31T11:28:50.128Z,27.95
2024-03-31T11:31:23.106Z,28.16
2024-03-31T11:33:52.065Z,28.26
2024-03-31T11:36:21.972Z,28.26
2024-03-31T11:38:49.974Z,28.27
2024-03-31T11:41:18.483Z,28.18
2024-03-31T11:43:47.986Z,28.33
2024-03-31T11:46:19.325Z,28.48
2024-03-31T11:48:47.232Z,28.53
2024-03-31T11:51:15.485Z,28.57
2024-03-31T11:53:44.233Z,28.52
2024-03-31T11:56:12.353Z,28.45
2024-03-31T11:58:40.186Z,28.37
2024-03-31T12:01:09.106Z,28.19
2024-03-31T12:03:37.219Z,28.15
2024-03-31T12:06:05.393Z,28.10
2024-03-31T12:08:43.122Z,28.10
2024-03-31T12:11:15.757Z,28.14
2024-03-31T12:13:44.132Z,28.11
2024-03-31T12:16:12.179Z,28.04
2024-03-31T12:18:40.224Z,27.97
2024-03-31T12:21:08.212Z,28.03
2024-03-31T12:23:37.431Z,28.07
2024-03-31T12:26:05.842Z,28.12
2024-03-31T12:28:33.980Z,28.10
2024-03-31T12:31:02.154Z,28.03
2024-03-31T12:33:30.213Z,27.95
2024-03-31T12:36:03.752Z,27.88
2024-03-31T12:38:33.646Z,27.79
2024-03-31T12:41:02.257Z,27.91
2024-03-31T12:43:31.180Z,28.10
2024-03-31T12:45:59.315Z,28.33
2024-03-31T12:48:27.859Z,28.54
2024-03-31T12:50:56.472Z,28.85
2024-03-31T12:53:27.836Z,29.15
2024-03-31T12:55:56.222Z,29.33
2024-03-31T12:58:24.342Z,29.50
2024-03-31T13:00:54.575Z,29.64
2024-03-31T13:03:22.828Z,29.52
2024-03-31T13:05:51.583Z,29.35
2024-03-31T13:08:23.927Z,29.42
2024-03-31T13:10:52.594Z,29.49
2024-03-31T13:13:23.215Z,29.56
2024-03-31T13:15:51.167Z,29.52
2024-03-31T13:18:21.596Z,29.53
2024-03-31T13:20:49.975Z,29.41
2024-03-31T13:23:19.884Z,29.38
2024-03-31T13:25:48.104Z,29.30
2024-03-31T13:28:16.054Z,29.21
2024-03-31T13:30:44.161Z,29.24
2024-03-31T13:33:12.387Z,29.26
2024-03-31T13:35:40.643Z,29.33
2024-03-31T13:38:08.470Z,29.39
2024-03-31T13:40:36.682Z,29.40
2024-03-31T13:43:04.818Z,29.28
2024-03-31T13:45:32.718Z,29.19
2024-03-31T13:48:00.716Z,29.16
2024-03-31T13:50:29.234Z,29.21
2024-03-31T13:52:57.561Z,29.27
2024-03-31T13:55:25.577Z,29.33
2024-03-31T13:57:53.486Z,29.41
2024-03-31T14:00:21.485Z,29.39
2024-03-31T14:02:49.770Z,29.24
2024-03-31T14:05:18.221Z,29.06
2024-03-31T14:07:46.736Z,28.88
2024-03-31T14:10:14.691Z,28.62
2024-03-31T14:12:44.113Z,28.34
2024-03-31T14:15:12.135Z,28.07
2024-03-31T14:17:40.183Z,27.81
2024-03-31T14:20:09.377Z,27.60
2024-03-31T14:22:40.316Z,27.51
2024-03-31T14:25:08.507Z,27.44
2024-03-31T14:27:36.359Z,27.37
2024-03-31T14:30:05.028Z,27.36
2024-03-31T14:32:32.804Z,27.33
2024-03-31T14:35:00.729Z,27.22
2024-03-31T14:37:28.836Z,27.14
2024-03-31T14:39:56.926Z,27.04
2024-03-31T14:42:25.011Z,26.92
2024-03-31T14:44:53.013Z,26.88
2024-03-31T14:47:20.994Z,26.84
2024-03-31T14:49:48.972Z,26.79
2024-03-31T14:52:16.892Z,26.83
2024-03-31T14:54:44.944Z,26.91
2024-03-31T14:57:13.205Z,27.04
2024-03-31T14:59:41.082Z,27.16
2024-03-31T15:02:10.334Z,27.31
2024-03-31T15:04:38.291Z,27.40
2024-03-31T15:07:06.256Z,27.49
2024-03-31T15:09:34.381Z,27.51
2024-03-31T15:12:03.818Z,27.53
2024-03-31T15:14:31.780Z,27.49
2024-03-31T15:16:59.933Z,27.49
2024-03-31T15:19:27.840Z,27.49
2024-03-31T15:21:56.132Z,27.40
2024-03-31T15:24:24.025Z,27.30
2024-03-31T15:26:51.886Z,27.19
2024-03-31T15:29:20.066Z,26.99
2024-03-31T15:31:48.938Z,26.81
2024-03-31T15:34:17.222Z,26.64
2024-03-31T15:36:44.981Z,26.58
2024-03-31T15:39:13.027Z,26.45
2024-03-31T15:41:41.141Z,26.34
2024-03-31T15:44:09.091Z,26.35
2024-03-31T15:46:37.367Z,26.38
2024-03-31T15:49:05.722Z,26.35
2024-03-31T15:51:33.686Z,26.33
2024-03-31T15:54:03.012Z,26.32
2024-03-31T15:56:35.045Z,26.26
2024-03-31T15:59:07.549Z,26.19
2024-03-31T16:01:35.512Z,26.07
2024-03-31T16:04:03.483Z,25.97
2024-03-31T16:06:32.202Z,25.88
2024-03-31T16:09:01.048Z,25.81
2024-03-31T16:11:28.873Z,25.73
2024-03-31T16:13:56.781Z,25.63
2024-03-31T16:16:24.820Z,25.56
2024-03-31T16:18:52.840Z,25.45
2024-03-31T16:21:21.027Z,25.32
2024-03-31T16:23:49.004Z,25.18
2024-03-31T16:26:17.106Z,25.03
2024-03-31T16:28:45.241Z,24.89
2024-03-31T16:31:13.119Z,24.82
2024-03-31T16:33:44.288Z,24.75
2024-03-31T16:36:12.197Z,24.68
2024-03-31T16:38:41.373Z,24.60
2024-03-31T16:41:09.322Z,24.50
2024-03-31T16:43:39.092Z,24.36
2024-03-31T16:46:07.475Z,24.18
2024-03-31T16:48:35.516Z,24.03
2024-03-31T16:51:06.049Z,23.94
2024-03-31T16:53:34.700Z,23.84
2024-03-31T16:56:02.709Z,23.75
2024-03-31T16:58:32.197Z,23.67
2024-03-31T17:01:01.208Z,23.60
2024-03-31T17:03:29.576Z,23.54
2024-03-31T17:05:57.852Z,23.45
2024-03-31T17:08:26.204Z,23.41
2024-03-31T17:10:54.145Z,23.31
2024-03-31T17:13:22.161Z,23.23
2024-03-31T17:15:57.354Z,23.14
2024-03-31T17:18:26.729Z,23.05
2024-03-31T17:20:54.560Z,23.00
2024-03-31T17:23:23.469Z,22.95
2024-03-31T17:25:57.736Z,22.85
2024-03-31T17:28:25.901Z,22.76
2024-03-31T17:30:53.952Z,22.69
2024-03-31T17:33:22.629Z,22.63
2024-03-31T17:35:59.690Z,22.58
2024-03-31T17:38:28.278Z,22.54
2024-03-31T17:40:57.435Z,22.51
2024-03-31T17:43:26.204Z,22.45
2024-03-31T17:45:54.427Z,22.38
2024-03-31T17:48:22.500Z,22.33
2024-03-31T17:50:50.616Z,22.26
2024-03-31T17:53:18.414Z,22.21
2024-03-31T17:55:46.409Z,22.15
2024-03-31T17:58:14.437Z,22.10
2024-03-31T18:00:42.368Z,22.04
2024-03-31T18:03:10.186Z,22.02
2024-03-31T18:05:38.118Z,21.99
2024-03-31T18:08:06.472Z,21.96
2024-03-31T18:10:35.999Z,21.92
2024-03-31T18:13:05.137Z,21.90
2024-03-31T18:15:33.099Z,21.86
2024-03-31T18:18:00.982Z,21.78
2024-03-31T18:20:28.829Z,21.71
2024-03-31T18:22:56.925Z,21.67
2024-03-31T18:25:24.930Z,21.64
2024-03-31T18:27:53.018Z,21.62
2024-03-31T18:30:21.127Z,21.59
2024-03-31T18:32:51.495Z,21.51
2024-03-31T18:35:19.537Z,21.44
2024-03-31T18:37:47.579Z,21.38
2024-03-31T18:40:15.728Z,21.31
2024-03-31T18:42:43.698Z,21.25
2024-03-31T18:45:11.652Z,21.17
2024-03-31T18:47:39.549Z,21.09
2024-03-31T18:50:08.078Z,21.02
2024-03-31T18:52:39.422Z,20.97
2024-03-31T18:55:09.718Z,20.94
2024-03-31T18:57:38.442Z,20.88
2024-03-31T19:00:07.088Z,20.79
2024-03-31T19:02:37.701Z,20.72
2024-03-31T19:05:07.568Z,20.63
2024-03-31T19:07:35.916Z,20.54
2024-03-31T19:10:04.164Z,20.46
2024-03-31T19:12:32.179Z,20.37
2024-03-31T19:15:00.318Z,20.32
2024-03-31T19:17:28.198Z,20.31
2024-03-31T19:19:56.221Z,20.28
2024-03-31T19:22:24.123Z,20.22
2024-03-31T19:24:52.041Z,20.16
2024-03-31T19:27:20.236Z,20.11
2024-03-31T19:29:53.149Z,20.08
2024-03-31T19:32:21.478Z,20.01
2024-03-31T19:34:53.796Z,19.95
2024-03-31T19:37:21.818Z,19.74
2024-03-31T19:39:50.047Z,19.48
2024-03-31T19:42:21.316Z,19.38
2024-03-31T19:44:50.790Z,19.31
2024-03-31T19:47:19.440Z,19.27
2024-03-31T19:49:50.766Z,19.21
2024-03-31T19:52:18.734Z,19.07
2024-03-31T19:54:47.073Z,18.95
2024-03-31T19:57:15.191Z,18.91
2024-03-31T19:59:43.411Z,18.91
2024-03-31T20:02:15.614Z,18.87
2024-03-31T20:04:44.756Z,18.84
2024-03-31T20:07:13.601Z,18.68
2024-03-31T20:09:42.084Z,18.54
2024-03-31T20:12:10.100Z,18.42
2024-03-31T20:14:37.941Z,18.31
2024-03-31T20:17:06.115Z,18.21
2024-03-31T20:19:34.354Z,18.21
2024-03-31T20:22:02.304Z,18.21
2024-03-31T20:24:30.249Z,18.23
2024-03-31T20:26:58.236Z,18.25
2024-03-31T20:29:26.124Z,18.27
2024-03-31T20:31:54.181Z,18.27
2024-03-31T20:34:22.153Z,18.23
2024-03-31T20:36:50.296Z,18.18
2024-03-31T20:39:20.533Z,18.19
2024-03-31T20:41:48.396Z,18.17
2024-03-31T20:44:16.551Z,18.08
2024-03-31T20:46:44.571Z,17.99
2024-03-31T20:49:12.818Z,17.99
2024-03-31T20:51:40.999Z,17.99
2024-03-31T20:54:09.004Z,17.88
2024-03-31T20:56:37.117Z,17.76
2024-03-31T20:59:10.081Z,17.73
2024-03-31T21:01:42.927Z,17.78
2024-03-31T21:04:10.953Z,17.81
2024-03-31T21:06:38.778Z,17.74
2024-03-31T21:09:07.737Z,17.71
2024-03-31T21:11:35.895Z,17.66
2024-03-31T21:14:04.830Z,17.67
2024-03-31T21:16:32.641Z,17.72
2024-03-31T21:19:00.626Z,17.77
2024-03-31T21:21:30.316Z,17.80
2024-03-31T21:23:58.834Z,17.82
2024-03-31T21:26:26.946Z,17.82
2024-03-31T21:28:54.849Z,17.76
2024-03-31T21:31:22.816Z,17.70
2024-03-31T21:33:51.180Z,17.65
2024-03-31T21:36:21.306Z,17.60
2024-03-31T21:38:51.359Z,17.57
2024-03-31T21:41:20.572Z,17.55
2024-03-31T21:43:50.088Z,17.56
2024-03-31T21:46:18.751Z,17.57
2024-03-31T21:48:46.856Z,17.58
2024-03-31T21:51:16.153Z,17.61
2024-03-31T21:53:44.287Z,17.63
2024-03-31T21:56:12.272Z,17.67
2024-03-31T21:58:41.657Z,17.70
2024-03-31T22:01:15.586Z,17.74
2024-03-31T22:03:46.176Z,17.69
2024-03-31T22:06:17.500Z,17.64
2024-03-31T22:08:46.020Z,17.53
2024-03-31T22:11:15.768Z,17.39
2024-03-31T22:13:44.429Z,17.32
2024-03-31T22:16:13.267Z,17.30
2024-03-31T22:18:41.284Z,17.22
2024-03-31T22:21:09.157Z,17.17
2024-03-31T22:23:37.053Z,17.17
2024-03-31T22:26:06.093Z,17.18
2024-03-31T22:28:33.915Z,17.19
2024-03-31T22:31:01.899Z,17.21
2024-03-31T22:33:31.688Z,17.21
2024-03-31T22:35:59.569Z,17.18
2024-03-31T22:38:27.376Z,17.13
2024-03-31T22:40:55.707Z,17.08
2024-03-31T22:43:23.589Z,17.06
2024-03-31T22:45:51.629Z,17.03
2024-03-31T22:48:20.652Z,16.99
2024-03-31T22:50:48.699Z,16.98
2024-03-31T22:53:16.751Z,17.02
2024-03-31T22:55:44.966Z,17.03
2024-03-31T22:58:13.889Z,16.97
2024-03-31T23:00:41.915Z,16.92
2024-03-31T23:03:09.822Z,16.87
2024-03-31T23:05:39.824Z,16.84
2024-03-31T23:08:09.972Z,16.81
2024-03-31T23:10:39.010Z,16.78
2024-03-31T23:13:07.010Z,16.74
2024-03-31T23:15:34.851Z,16.70
2024-03-31T23:18:03.014Z,16.69
2024-03-31T23:20:31.280Z,16.69
2024-03-31T23:22:59.192Z,16.67
2024-03-31T23:25:27.184Z,16.67
2024-03-31T23:27:55.087Z,16.66
2024-03-31T23:30:23.333Z,16.65
2024-03-31T23:32:51.406Z,16.64
2024-03-31T23:35:19.203Z,16.63
2024-03-31T23:37:47.210Z,16.59
2024-03-31T23:40:16.186Z,16.53
2024-03-31T23:42:44.137Z,16.49
2024-03-31T23:45:12.581Z,16.46
2024-03-31T23:47:40.384Z,16.42
2024-03-31T23:50:08.542Z,16.42
2024-03-31T23:52:37.504Z,16.44
2024-03-31T23:55:05.962Z,16.47
2024-03-31T23:57:33.931Z,16.44
